createdAt,value
2022-12-11T08:38:30.685Z,100092.8046875
2022-12-11T08:39:30.244Z,100086.7890625
2022-12-11T08:40:30.479Z,100085.19140625
2022-12-11T08:41:30.263Z,100087.68359375
2022-12-11T08:50:52.030Z,100089.40625
2022-12-11T08:51:52.062Z,100094.265625
2022-12-11T08:58:27.401Z,100092.37890625
2022-12-11T08:59:27.406Z,100094.68359375
2022-12-11T09:01:03.764Z,100096.13671875
2022-12-11T09:10:07.747Z,100095.21875
2022-12-11T09:12:44.364Z,100089.125
2022-12-11T09:14:57.494Z,100093.546875
2022-12-11T09:15:57.241Z,100089.09375
2022-12-11T09:16:57.061Z,100090.65234375
2022-12-11T09:17:57.075Z,100090.10546875
2022-12-11T09:19:35.424Z,100088.75
2022-12-11T09:20:35.076Z,100085.90234375
2022-12-11T09:21:35.146Z,100089.3515625
2022-12-11T09:22:34.984Z,100084.8515625
2022-12-11T09:23:35.016Z,100085.14453125
2022-12-11T09:24:38.168Z,100089.23046875
2022-12-11T09:25:35.084Z,100085.96484375
2022-12-11T09:37:56.121Z,100092.7421875
2022-12-11T09:38:52.352Z,100093.9609375
2022-12-11T09:39:52.343Z,100091.4375
2022-12-11T09:40:52.049Z,100094.44140625
2022-12-11T09:41:51.973Z,100093.8046875
2022-12-11T09:42:52.141Z,100094.90625
2022-12-11T09:45:52.327Z,100084.640625
2022-12-11T09:46:52.206Z,100082.48828125
2022-12-11T09:47:52.355Z,100081.49609375
2022-12-11T09:48:52.273Z,100080.48828125
2022-12-11T09:49:52.224Z,100080.8046875
2022-12-11T09:50:55.305Z,100083.16796875
2022-12-11T09:51:52.303Z,100079.43359375
2022-12-11T09:52:52.264Z,100083.55859375
2022-12-11T09:53:52.642Z,100080.44140625
2022-12-11T09:54:52.263Z,100083.5390625
2022-12-11T09:55:52.275Z,100078.6171875
2022-12-11T09:56:52.294Z,100079.921875
2022-12-11T09:57:52.292Z,100079.296875
2022-12-11T09:58:52.255Z,100079.95703125
2022-12-11T09:59:52.378Z,100078.546875
2022-12-11T10:00:52.406Z,100078.9453125
2022-12-11T10:01:52.255Z,100075.3515625
2022-12-11T10:02:52.229Z,100077.203125
2022-12-11T10:03:52.193Z,100081.62109375
2022-12-11T10:04:52.208Z,100077.9453125
2022-12-11T10:05:52.291Z,100077.84765625
2022-12-11T10:06:55.385Z,100080.453125
2022-12-11T10:07:52.353Z,100081.78125
2022-12-11T10:08:52.200Z,100075.890625
2022-12-11T10:09:52.211Z,100077.31640625
2022-12-11T10:10:52.260Z,100082.52734375
2022-12-11T10:11:56.506Z,100079.6640625
2022-12-11T10:12:52.265Z,100082.33203125
2022-12-11T10:13:52.198Z,100076.09375
2022-12-11T10:14:52.295Z,100080.17578125
2022-12-11T10:15:52.332Z,100079.58984375
2022-12-11T10:16:52.284Z,100077.546875
2022-12-11T10:17:52.336Z,100077.078125
2022-12-11T10:18:52.241Z,100077.7109375
2022-12-11T10:19:52.626Z,100081.1328125
2022-12-11T10:20:52.384Z,100079.89453125
2022-12-11T10:21:52.326Z,100077.75
2022-12-11T10:22:55.234Z,100080.0234375
2022-12-11T10:23:52.271Z,100083.81640625
2022-12-11T10:25:11.656Z,100082.0859375
2022-12-11T10:25:52.310Z,100083.01953125
2022-12-11T10:26:52.360Z,100079.9296875
2022-12-11T10:27:52.391Z,100078.296875
2022-12-11T10:28:55.237Z,100079.60546875
2022-12-11T10:31:25.875Z,100076.34765625
2022-12-11T10:32:25.810Z,100077.59765625
2022-12-11T10:35:09.888Z,100077.03515625
2022-12-11T10:37:14.032Z,100075.8671875
2022-12-11T10:38:14.139Z,100076.7734375
2022-12-11T10:39:14.117Z,100075.421875
2022-12-11T10:40:14.139Z,100076.171875
2022-12-11T10:41:14.151Z,100078.3046875
2022-12-11T10:42:17.140Z,100073.8203125
2022-12-11T10:43:13.989Z,100072.140625
2022-12-11T10:44:13.970Z,100071.40234375
2022-12-11T10:45:14.148Z,100072.90234375
2022-12-11T10:46:14.251Z,100067.69140625
2022-12-11T10:47:14.038Z,100067.37890625
2022-12-11T10:48:14.062Z,100067.91796875
2022-12-11T10:49:13.979Z,100069.66015625
2022-12-11T10:50:13.971Z,100066.3671875
2022-12-11T10:51:13.984Z,100066.27734375
2022-12-11T10:52:13.962Z,100063.0625
2022-12-11T10:53:17.078Z,100064.6328125
2022-12-11T10:54:14.153Z,100062.3671875
2022-12-11T10:55:14.057Z,100064.3828125
2022-12-11T10:56:13.946Z,100058.375
2022-12-11T10:57:13.970Z,100056.3515625
2022-12-11T10:58:14.059Z,100057.84375
2022-12-11T10:59:13.968Z,100052.11328125
2022-12-11T11:00:14.158Z,100053.625
2022-12-11T11:01:14.281Z,100054.01953125
2022-12-11T11:02:14.137Z,100048.125
2022-12-11T11:03:14.065Z,100041.35546875
2022-12-11T11:04:17.160Z,100042.01171875
2022-12-11T11:05:14.181Z,100046.33203125
2022-12-11T11:06:14.202Z,100046.38671875
2022-12-11T11:07:14.143Z,100044.17578125
2022-12-11T11:08:14.143Z,100041.8984375
2022-12-11T11:09:14.080Z,100041.68359375
2022-12-11T11:10:14.119Z,100044.60546875
2022-12-11T11:11:13.979Z,100039.30859375
2022-12-11T11:12:13.936Z,100040.609375
2022-12-11T11:13:13.992Z,100043.78125
2022-12-11T11:14:13.971Z,100041.53515625
2022-12-11T11:15:17.102Z,100038.375
2022-12-11T11:16:14.086Z,100042.3125
2022-12-11T11:17:13.956Z,100040.2109375
2022-12-11T11:18:13.972Z,100045.2734375
2022-12-11T11:19:14.084Z,100038.90234375
2022-12-11T11:20:14.479Z,100039.5078125
2022-12-11T11:21:13.954Z,100038.5625
2022-12-11T11:22:14.077Z,100034.64453125
2022-12-11T11:23:14.169Z,100030.87890625
2022-12-11T11:24:13.965Z,100028.6796875
2022-12-11T11:25:14.135Z,100027.7890625
2022-12-11T11:26:16.977Z,100024.53515625
2022-12-11T11:27:14.214Z,100023.09375
2022-12-11T11:28:14.045Z,100020.28125
2022-12-11T11:29:14.290Z,100016.19140625
2022-12-11T11:30:14.172Z,100017.93359375
2022-12-11T11:31:14.210Z,100017.06640625
2022-12-11T11:32:17.091Z,100021.390625
2022-12-11T11:33:14.126Z,100019.68359375
2022-12-11T11:34:13.958Z,100019.625
2022-12-11T11:35:14.205Z,100017.6484375
2022-12-11T11:36:13.971Z,100018.29296875
2022-12-11T11:37:14.135Z,100016.17578125
2022-12-11T11:38:13.971Z,100014.46875
2022-12-11T11:39:14.078Z,100014.328125
2022-12-11T11:40:14.164Z,100011.3984375
2022-12-11T11:41:15.337Z,100010.0390625
2022-12-11T11:42:13.929Z,100007.0625
2022-12-11T11:43:17.022Z,100005.13671875
2022-12-11T11:44:14.150Z,100008.2421875
2022-12-11T11:45:14.451Z,100000.74609375
2022-12-11T11:46:14.072Z,100004.78515625
2022-12-11T11:47:13.962Z,100005.80078125
2022-12-11T11:48:14.036Z,100005.546875
2022-12-11T11:49:14.139Z,100004.4609375
2022-12-11T11:50:14.325Z,100004.95703125
2022-12-11T11:51:13.974Z,100004.81640625
2022-12-11T11:52:13.995Z,100005.7265625
2022-12-11T11:53:14.118Z,100005.26953125
2022-12-11T11:54:13.978Z,100008.04296875
2022-12-11T11:55:17.307Z,100007.05859375
2022-12-11T11:56:14.044Z,100005.15625
2022-12-11T11:57:13.950Z,100004.9609375
2022-12-11T11:58:13.971Z,100001.1484375
2022-12-11T11:59:16.994Z,100004.00390625
2022-12-11T12:00:14.345Z,100003.6015625
2022-12-11T12:01:14.071Z,100002.6484375
2022-12-11T12:02:14.062Z,100001.55859375
2022-12-11T12:03:14.066Z,99996.47265625
2022-12-11T12:04:13.963Z,100000.9921875
2022-12-11T12:05:17.110Z,99995.70703125
2022-12-11T12:06:15.434Z,99991.55859375
2022-12-11T12:07:14.070Z,99992.953125
2022-12-11T12:08:14.063Z,99995.0859375
2022-12-11T12:09:14.069Z,99998.34375
2022-12-11T12:10:14.182Z,99994.47265625
2022-12-11T12:11:14.055Z,99992.70703125
2022-12-11T12:12:14.020Z,99992.14453125
2022-12-11T12:13:44.361Z,99992.33984375
2022-12-11T12:14:43.518Z,99994.046875
2022-12-11T12:15:14.268Z,99993.0703125
2022-12-11T12:16:50.421Z,99994.91015625
2022-12-11T12:17:14.143Z,99992.6796875
2022-12-11T12:18:14.054Z,99993.703125
2022-12-11T12:19:13.954Z,99992
2022-12-11T12:20:14.108Z,99992.34375
2022-12-11T12:21:13.982Z,99992.03515625
2022-12-11T12:22:14.064Z,99986.91796875
2022-12-11T12:23:14.095Z,99991.75390625
2022-12-11T12:24:14.134Z,99985.7890625
2022-12-11T12:25:14.319Z,99984.58203125
2022-12-11T12:26:14.047Z,99985.84765625
2022-12-11T12:27:43.626Z,99985.62109375
2022-12-11T12:28:14.121Z,99979.9765625
2022-12-11T12:29:14.067Z,99982.796875
2022-12-11T12:30:20.350Z,99981.70703125
2022-12-11T12:31:14.021Z,99988.13671875
2022-12-11T12:32:16.998Z,99990.71875
2022-12-11T12:33:14.162Z,99982.05078125
2022-12-11T12:34:14.152Z,99985.0390625
2022-12-11T12:35:14.580Z,99986.08984375
2022-12-11T12:36:13.969Z,99986.0234375
2022-12-11T12:37:13.972Z,99988.53125
2022-12-11T12:38:14.003Z,99989.72265625
2022-12-11T12:39:13.942Z,99987.84375
2022-12-11T12:40:14.393Z,99990.21484375
2022-12-11T12:41:14.021Z,99986.42578125
2022-12-11T12:42:14.043Z,99987.79296875
2022-12-11T12:43:16.952Z,99990.9921875
2022-12-11T12:44:14.178Z,99985.859375
2022-12-11T12:45:14.311Z,99986.921875
2022-12-11T12:46:14.010Z,99986.64453125
2022-12-11T12:47:14.045Z,99986.67578125
2022-12-11T12:48:14.156Z,99986.66015625
2022-12-11T12:49:13.949Z,99989.25
2022-12-11T12:50:13.939Z,99987.171875
2022-12-11T12:51:14.117Z,99983.51171875
2022-12-11T12:52:14.071Z,99984.9140625
2022-12-11T12:53:14.044Z,99983.5078125
2022-12-11T12:54:16.977Z,99989.56640625
2022-12-11T12:55:14.742Z,99982.34765625
2022-12-11T12:56:14.170Z,99984.81640625
2022-12-11T12:57:13.959Z,99983.01171875
2022-12-11T12:58:13.984Z,99987.90234375
2022-12-11T12:59:13.944Z,99980.1640625
2022-12-11T13:00:17.313Z,99983.69921875
2022-12-11T13:01:14.227Z,99982.1484375
2022-12-11T13:02:14.034Z,99981.79296875
2022-12-11T13:03:14.076Z,99983.33984375
2022-12-11T13:04:32.655Z,99980.71875
2022-12-11T13:05:14.398Z,99986.49609375
2022-12-11T13:06:14.092Z,99980.70703125
2022-12-11T13:07:14.057Z,99984.8671875
2022-12-11T13:08:14.115Z,99982.8671875
2022-12-11T13:09:14.148Z,99985.8046875
2022-12-11T13:10:14.330Z,99984.57421875
2022-12-11T13:11:17.121Z,99991.08203125
2022-12-11T13:12:14.010Z,99990.31640625
2022-12-11T13:13:14.024Z,99985.75390625
2022-12-11T13:14:14.069Z,99984.82421875
2022-12-11T13:15:14.079Z,99984.33203125
2022-12-11T13:16:14.076Z,99981.0546875
2022-12-11T13:17:13.943Z,99980.8046875
2022-12-11T13:18:14.074Z,99980.46484375
2022-12-11T13:19:13.969Z,99980.5234375
2022-12-11T13:20:14.402Z,99981.33984375
2022-12-11T13:21:13.955Z,99981.21875
2022-12-11T13:22:16.953Z,99982.046875
2022-12-11T13:23:14.061Z,99982.09765625
2022-12-11T13:24:14.318Z,99981.1484375
2022-12-11T13:25:14.397Z,99981.703125
2022-12-11T13:26:14.146Z,99980.4296875
2022-12-11T13:27:14.057Z,99982.39453125
2022-12-11T13:28:14.111Z,99979.07421875
2022-12-11T13:29:14.118Z,99981.26171875
2022-12-11T13:30:14.395Z,99979.296875
2022-12-11T13:31:14.270Z,99977.765625
2022-12-11T13:32:13.953Z,99980.7578125
2022-12-11T13:33:13.975Z,99977.4140625
2022-12-11T13:34:14.049Z,99978.09375
2022-12-11T13:35:14.239Z,99976.22265625
2022-12-11T13:36:18.891Z,99975.72265625
2022-12-11T13:37:14.031Z,99975.9921875
2022-12-11T13:38:17.082Z,99977.65625
2022-12-11T13:39:14.151Z,99978.8046875
2022-12-11T13:40:14.158Z,99978.00390625
2022-12-11T13:41:14.049Z,99983.1015625
2022-12-11T13:42:17.456Z,99982.90234375
2022-12-11T13:43:13.954Z,99981.4296875
2022-12-11T13:44:17.128Z,99988.953125
2022-12-11T13:45:14.071Z,99987.28515625
2022-12-11T13:46:14.058Z,99985.36328125
2022-12-11T13:47:14.030Z,99986.05859375
2022-12-11T13:48:16.805Z,99990.65234375
2022-12-11T13:49:14.064Z,99989.05859375
2022-12-11T13:50:13.962Z,99986.45703125
2022-12-11T13:51:14.118Z,99989.68359375
2022-12-11T13:52:14.161Z,99984.265625
2022-12-11T13:53:13.961Z,99988.6328125
2022-12-11T13:54:17.023Z,99986.51171875
2022-12-11T13:55:17.115Z,99988.86328125
2022-12-11T13:56:14.039Z,99987.57421875
2022-12-11T13:57:14.116Z,99985.4296875
2022-12-11T13:58:14.078Z,99983.6484375
2022-12-11T13:59:14.120Z,99983.453125
2022-12-11T14:00:17.308Z,99987.83984375
2022-12-11T14:01:14.144Z,99984.64453125
2022-12-11T14:02:13.974Z,99980.02734375
2022-12-11T14:03:14.063Z,99980.47265625
2022-12-11T14:04:13.986Z,99980.296875
2022-12-11T14:05:14.496Z,99984.62109375
2022-12-11T14:06:19.022Z,99980.6171875
2022-12-11T14:07:14.133Z,99981.1171875
2022-12-11T14:08:14.093Z,99982.46875
2022-12-11T14:09:13.973Z,99984.66796875
2022-12-11T14:10:14.457Z,99983.140625
2022-12-11T14:11:14.074Z,99982.96875
2022-12-11T14:12:14.054Z,99984.12890625
2022-12-11T14:13:13.958Z,99983.73046875
2022-12-11T14:14:13.966Z,99985.4765625
2022-12-11T14:15:14.140Z,99984.33203125
2022-12-11T14:16:13.990Z,99984.9375
2022-12-11T14:17:17.012Z,99986.80078125
2022-12-11T14:18:14.127Z,99986.80078125
2022-12-11T14:19:14.254Z,99988.4765625
2022-12-11T14:20:14.684Z,99989.625
2022-12-11T14:21:14.061Z,99990.74609375
2022-12-11T14:22:13.963Z,99993.12109375
2022-12-11T14:23:14.161Z,99988.8125
2022-12-11T14:24:13.962Z,99988.71484375
2022-12-11T14:25:14.875Z,99988.91796875
2022-12-11T14:26:14.092Z,99995.4921875
2022-12-11T14:27:14.063Z,99990.29296875
2022-12-11T14:28:13.969Z,99991.4609375
2022-12-11T14:29:13.972Z,99995.2734375
2022-12-11T14:30:15.004Z,99991.02734375
2022-12-11T14:31:14.151Z,99990.05859375
2022-12-11T14:32:14.116Z,99993.90234375
2022-12-11T14:33:16.986Z,99988.3203125
2022-12-11T14:34:14.066Z,99986.45703125
2022-12-11T14:35:14.321Z,99990.98046875
2022-12-11T14:36:14.078Z,99989.86328125
2022-12-11T14:37:14.099Z,99992.26953125
2022-12-11T14:38:14.182Z,99997.80078125
2022-12-11T14:39:14.320Z,99993.87109375
2022-12-11T14:40:14.591Z,99994.828125
2022-12-11T14:41:14.030Z,99994.796875
2022-12-11T14:42:14.050Z,99997.59375
2022-12-11T14:43:14.070Z,99997.35546875
2022-12-11T14:44:17.076Z,99996.16015625
2022-12-11T14:45:14.434Z,100001.37109375
2022-12-11T14:46:14.010Z,99999.5546875
2022-12-11T14:47:13.956Z,99997.640625
2022-12-11T14:48:14.132Z,99999.12109375
2022-12-11T14:49:14.049Z,99998.51171875
2022-12-11T14:50:14.466Z,99996.66796875
2022-12-11T14:51:14.066Z,99999.41796875
2022-12-11T14:52:14.066Z,99998.8046875
2022-12-11T14:53:13.961Z,99997.8515625
2022-12-11T14:54:20.066Z,99995.75390625
2022-12-11T14:55:14.325Z,99995.18359375
2022-12-11T14:56:14.103Z,99998.5859375
2022-12-11T14:57:14.173Z,99996.1171875
2022-12-11T14:58:14.075Z,99998.0703125
2022-12-11T14:59:13.953Z,99998.0078125
2022-12-11T15:00:17.045Z,100000.1015625
2022-12-11T15:01:14.162Z,100001.921875
2022-12-11T15:02:14.151Z,100000.125
2022-12-11T15:03:13.970Z,100003.078125
2022-12-11T15:04:14.178Z,100001.04296875
2022-12-11T15:05:14.144Z,100002.96875
2022-12-11T15:06:14.110Z,100002.94921875
2022-12-11T15:07:14.076Z,100003.42578125
2022-12-11T15:08:14.117Z,100002.37109375
2022-12-11T15:09:13.992Z,100001.50390625
2022-12-11T15:10:14.120Z,100000.33203125
2022-12-11T15:11:13.939Z,100001.875
2022-12-11T15:12:13.953Z,100003.9765625
2022-12-11T15:13:14.081Z,100002.109375
2022-12-11T15:14:14.160Z,100000.91015625
2022-12-11T15:15:14.323Z,100002.6875
2022-12-11T15:16:14.120Z,100004.09375
2022-12-11T15:17:14.048Z,100004.50390625
2022-12-11T15:18:14.080Z,100006.27734375
2022-12-11T15:19:14.126Z,100005.15234375
2022-12-11T15:20:14.521Z,100010.94140625
2022-12-11T15:21:17.110Z,100008.2890625
2022-12-11T15:22:14.181Z,100005.671875
2022-12-11T15:23:18.576Z,100009.7890625
2022-12-11T15:24:14.455Z,100010.65625
2022-12-11T15:25:14.327Z,100009.734375
2022-12-11T15:26:13.958Z,100011.5859375
2022-12-11T15:27:14.055Z,100014.5859375
2022-12-11T15:28:14.063Z,100012.89453125
2022-12-11T15:29:13.980Z,100015.18359375
2022-12-11T15:30:14.393Z,100017.0546875
2022-12-11T15:31:14.067Z,100018.92578125
2022-12-11T15:32:14.016Z,100020.62109375
2022-12-11T15:33:14.029Z,100022.04296875
2022-12-11T15:34:14.026Z,100022.21484375
2022-12-11T15:35:14.076Z,100022.75
2022-12-11T15:36:13.971Z,100026.23046875
2022-12-11T15:37:16.951Z,100028.328125
2022-12-11T15:38:14.162Z,100030.67578125
2022-12-11T15:39:14.365Z,100030.2421875
2022-12-11T15:40:14.812Z,100030.7421875
2022-12-11T15:41:14.077Z,100033.484375
2022-12-11T15:42:13.953Z,100033.11328125
2022-12-11T15:43:14.056Z,100027.8359375
2022-12-11T15:44:14.063Z,100029.09765625
2022-12-11T15:45:14.294Z,100031.1484375
2022-12-11T15:46:14.007Z,100030.14453125
2022-12-11T15:47:13.963Z,100029.44921875
2022-12-11T15:48:13.964Z,100033.4921875
2022-12-11T15:49:14.022Z,100031.140625
2022-12-11T15:50:14.136Z,100031.98046875
2022-12-11T15:51:14.109Z,100032.02734375
2022-12-11T15:52:14.059Z,100029.59765625
2022-12-11T15:53:17.082Z,100031.4765625
2022-12-11T15:54:14.089Z,100037.19140625
2022-12-11T15:55:14.279Z,100039.0078125
2022-12-11T15:56:13.960Z,100035.6015625
2022-12-11T15:57:13.962Z,100035.2734375
2022-12-11T15:58:13.957Z,100033.4609375
2022-12-11T15:59:17.001Z,100036.90234375
2022-12-11T16:00:14.169Z,100034.1171875
2022-12-11T16:01:14.027Z,100037.828125
2022-12-11T16:02:14.090Z,100034.01171875
2022-12-11T16:03:14.051Z,100035.79296875
2022-12-11T16:04:13.940Z,100034.75390625
2022-12-11T16:05:14.262Z,100036.60546875
2022-12-11T16:06:14.162Z,100036.0390625
2022-12-11T16:07:14.471Z,100037.19921875
2022-12-11T16:08:14.195Z,100038.65234375
2022-12-11T16:09:14.320Z,100039.015625
2022-12-11T16:10:17.063Z,100040.35546875
2022-12-11T16:11:14.131Z,100039.06640625
2022-12-11T16:12:13.990Z,100038.5
2022-12-11T16:13:13.979Z,100042.1171875
2022-12-11T16:14:14.048Z,100037.5703125
2022-12-11T16:15:17.457Z,100043.46484375
2022-12-11T16:16:13.984Z,100043.50390625
2022-12-11T16:17:14.079Z,100037.58203125
2022-12-11T16:18:14.118Z,100035.86328125
2022-12-11T16:19:13.967Z,100037.64453125
2022-12-11T16:20:14.084Z,100034.2109375
2022-12-11T16:21:21.341Z,100036.97265625
2022-12-11T16:22:14.058Z,100036.71484375
2022-12-11T16:23:13.968Z,100036.23046875
2022-12-11T16:24:14.430Z,100038.0390625
2022-12-11T16:25:14.362Z,100037.87890625
2022-12-11T16:26:14.042Z,100039.44140625
2022-12-11T16:27:17.298Z,100040.47265625
2022-12-11T16:28:13.994Z,100039.78125
2022-12-11T16:29:13.979Z,100040.7421875
2022-12-11T16:30:14.408Z,100038.64453125
2022-12-11T16:31:14.105Z,100037.81640625
2022-12-11T16:32:14.079Z,100039.90234375
2022-12-11T16:33:14.092Z,100036.30078125
2022-12-11T16:34:14.063Z,100042.26171875
2022-12-11T16:35:14.381Z,100039.15625
2022-12-11T16:36:14.067Z,100041.93359375
2022-12-11T16:37:16.981Z,100040.15625
2022-12-11T16:38:14.060Z,100041.76171875
2022-12-11T16:39:14.318Z,100040.84765625
2022-12-11T16:40:14.126Z,100042.55078125
2022-12-11T16:41:13.963Z,100043.796875
2022-12-11T16:42:13.949Z,100039.76171875
2022-12-11T16:43:14.110Z,100035.7890625
2022-12-11T16:44:14.100Z,100036.9921875
2022-12-11T16:45:14.379Z,100036.734375
2022-12-11T16:46:14.174Z,100034.18359375
2022-12-11T16:47:14.070Z,100037.73828125
2022-12-11T16:48:17.069Z,100035.3125
2022-12-11T16:49:14.168Z,100036.56640625
2022-12-11T16:50:14.145Z,100032.7421875
2022-12-11T16:51:14.086Z,100030.61328125
2022-12-11T16:52:17.654Z,100032.078125
2022-12-11T16:53:13.972Z,100029.54296875
2022-12-11T16:54:20.059Z,100033.87109375
2022-12-11T16:55:14.492Z,100030.2734375
2022-12-11T16:56:13.969Z,100031.62109375
2022-12-11T16:57:13.955Z,100031.97265625
2022-12-11T16:58:14.141Z,100027.84375
2022-12-11T16:59:14.129Z,100032.39453125
2022-12-11T17:00:14.090Z,100030.31640625
2022-12-11T17:01:14.154Z,100026.83203125
2022-12-11T17:02:14.210Z,100031.421875
2022-12-11T17:03:13.963Z,100025.8046875
2022-12-11T17:04:13.987Z,100024.76171875
2022-12-11T17:05:16.985Z,100029.23046875
2022-12-11T17:06:14.055Z,100031.21875
2022-12-11T17:07:13.969Z,100031.953125
2022-12-11T17:08:13.990Z,100028.37890625
2022-12-11T17:09:14.337Z,100026.54296875
2022-12-11T17:10:14.050Z,100022.1328125
2022-12-11T17:11:13.943Z,100019.26953125
2022-12-11T17:12:13.970Z,100018.61328125
2022-12-11T17:13:14.030Z,100015.1796875
2022-12-11T17:14:14.120Z,100016.39453125
2022-12-11T17:15:14.325Z,100018.1328125
2022-12-11T17:16:17.059Z,100020.55078125
2022-12-11T17:17:14.024Z,100016.93359375
2022-12-11T17:18:14.103Z,100016.83984375
2022-12-11T17:19:14.149Z,100018.9453125
2022-12-11T17:20:13.978Z,100020.28125
2022-12-11T17:21:14.093Z,100015.0859375
2022-12-11T17:22:13.959Z,100020.54296875
2022-12-11T17:23:14.046Z,100016.1796875
2022-12-11T17:24:13.990Z,100022.81640625
2022-12-11T17:25:14.396Z,100020.18359375
2022-12-11T17:26:14.042Z,100021.09375
2022-12-11T17:27:17.015Z,100018.78125
2022-12-11T17:28:14.135Z,100021.3515625
2022-12-11T17:29:14.006Z,100018.73046875
2022-12-11T17:30:14.071Z,100022.359375
2022-12-11T17:31:14.193Z,100020.328125
2022-12-11T17:32:14.107Z,100018.36328125
2022-12-11T17:33:13.969Z,100024.3125
2022-12-11T17:34:13.947Z,100019.76171875
2022-12-11T17:35:14.391Z,100020.0078125
2022-12-11T17:36:14.168Z,100024.1796875
2022-12-11T17:37:14.119Z,100020.671875
2022-12-11T17:38:16.963Z,100019.8671875
2022-12-11T17:39:14.177Z,100017.1953125
2022-12-11T17:40:14.037Z,100018.91796875
2022-12-11T17:41:20.062Z,100018.8125
2022-12-11T17:42:14.070Z,100016.19140625
2022-12-11T17:43:14.078Z,100017.97265625
2022-12-11T17:44:13.976Z,100014.66015625
2022-12-11T17:45:14.396Z,100012.59375
2022-12-11T17:46:14.324Z,100014.9609375
2022-12-11T17:47:14.060Z,100012.3984375
2022-12-11T17:48:13.948Z,100015.2734375
2022-12-11T17:49:16.966Z,100013.78125
2022-12-11T17:50:14.064Z,100011.6015625
2022-12-11T17:51:13.992Z,100015.6640625
2022-12-11T17:52:13.965Z,100015.4375
2022-12-11T17:53:14.161Z,100013.53515625
2022-12-11T17:54:14.095Z,100014.4296875
2022-12-11T17:55:14.320Z,100012.23828125
2022-12-11T17:56:13.971Z,100014.34375
2022-12-11T17:57:14.011Z,100014.453125
2022-12-11T17:58:13.950Z,100012.41015625
2022-12-11T17:59:13.975Z,100011.35546875
2022-12-11T18:00:14.042Z,100009.93359375
2022-12-11T18:01:14.202Z,100011.45703125
2022-12-11T18:02:14.095Z,100010.07421875
2022-12-11T18:03:14.126Z,100010.74609375
2022-12-11T18:04:14.079Z,100010.046875
2022-12-11T18:05:17.077Z,100010.1640625
2022-12-11T18:06:13.975Z,100009.44140625
2022-12-11T18:07:14.068Z,100014.2578125
2022-12-11T18:08:14.277Z,100012.73828125
2022-12-11T18:09:14.112Z,100016.92578125
2022-12-11T18:10:14.138Z,100018.015625
2022-12-11T18:11:13.954Z,100014.546875
2022-12-11T18:12:13.944Z,100016.23046875
2022-12-11T18:13:14.117Z,100015.12890625
2022-12-11T18:14:17.365Z,100015.39453125
2022-12-11T18:15:14.313Z,100015.15625
2022-12-11T18:16:14.080Z,100009.9765625
2022-12-11T18:17:13.975Z,100013.84375
2022-12-11T18:18:14.128Z,100011.06640625
2022-12-11T18:19:13.965Z,100008.87890625
2022-12-11T18:20:13.978Z,100010.83203125
2022-12-11T18:21:16.940Z,100009.1171875
2022-12-11T18:22:14.137Z,100008.28125
2022-12-11T18:23:14.175Z,100006.28515625
2022-12-11T18:24:14.173Z,100005.40625
2022-12-11T18:25:14.113Z,100007.890625
2022-12-11T18:26:13.971Z,100009.63671875
2022-12-11T18:27:13.961Z,100008.48046875
2022-12-11T18:28:14.050Z,100012.48828125
2022-12-11T18:29:13.956Z,100007.8671875
2022-12-11T18:30:13.967Z,100008.921875
2022-12-11T18:31:14.073Z,100007.71484375
2022-12-11T18:32:16.956Z,100011.39453125
2022-12-11T18:33:13.949Z,100012.47265625
2022-12-11T18:34:13.958Z,100012.90625
2022-12-11T18:35:14.353Z,100009.46875
2022-12-11T18:36:14.183Z,100010.703125
2022-12-11T18:37:13.971Z,100007.90625
2022-12-11T18:38:14.037Z,100006.53125
2022-12-11T18:39:14.398Z,100004.5390625
2022-12-11T18:40:14.073Z,100005.96484375
2022-12-11T18:41:13.952Z,100005.43359375
2022-12-11T18:42:32.315Z,100007.7578125
2022-12-11T18:43:14.107Z,100010.234375
2022-12-11T18:44:14.134Z,100010.4140625
2022-12-11T18:45:14.450Z,100015.375
2022-12-11T18:46:14.025Z,100011.2265625
2022-12-11T18:47:14.113Z,100014.40234375
2022-12-11T18:48:16.971Z,100014.01171875
2022-12-11T18:49:14.062Z,100010.03515625
2022-12-11T18:50:13.985Z,100014.51171875
2022-12-11T18:51:14.064Z,100014.4140625
2022-12-11T18:52:13.961Z,100013.38671875
2022-12-11T18:53:14.056Z,100018.02734375
2022-12-11T18:54:14.325Z,100015.73828125
2022-12-11T18:55:14.449Z,100021.87890625
2022-12-11T18:56:14.123Z,100018.3671875
2022-12-11T18:57:14.046Z,100021.7734375
2022-12-11T18:58:13.943Z,100019.80859375
2022-12-11T18:59:14.365Z,100018.12109375
2022-12-11T19:00:14.485Z,100015
2022-12-11T19:01:14.123Z,100018.80078125
2022-12-11T19:02:14.066Z,100016.95703125
2022-12-11T19:03:13.962Z,100017.94140625
2022-12-11T19:04:17.154Z,100018.625
2022-12-11T19:05:14.763Z,100021.47265625
2022-12-11T19:06:14.107Z,100026.5859375
2022-12-11T19:07:14.123Z,100024.5625
2022-12-11T19:08:14.254Z,100025.359375
2022-12-11T19:09:14.152Z,100021.78125
2022-12-11T19:10:14.335Z,100017.94140625
2022-12-11T19:11:13.944Z,100020.484375
2022-12-11T19:12:13.953Z,100020.45703125
2022-12-11T19:13:14.058Z,100020.9609375
2022-12-11T19:14:14.047Z,100024.84765625
2022-12-11T19:15:22.182Z,100019.54296875
2022-12-11T19:16:14.165Z,100019.01171875
2022-12-11T19:17:14.043Z,100014.24609375
2022-12-11T19:18:14.123Z,100012.67578125
2022-12-11T19:19:13.964Z,100019.66015625
2022-12-11T19:20:40.551Z,100017.5703125
2022-12-11T19:21:13.972Z,100014.6875
2022-12-11T19:22:14.058Z,100017.02734375
2022-12-11T19:23:14.120Z,100018.73828125
2022-12-11T19:24:13.986Z,100014.390625